createdAt,value
2019-05-21T00:00:24.918Z,62.33
2019-05-21T00:01:24.842Z,62.65
2019-05-21T00:02:24.765Z,63.03
2019-05-21T00:03:24.686Z,63.19
2019-05-21T00:04:28.385Z,64.09
2019-05-21T00:05:24.531Z,64.28
2019-05-21T00:06:24.452Z,63.67
2019-05-21T00:07:24.375Z,64.28
2019-05-21T00:08:24.297Z,64.05
2019-05-21T00:09:24.216Z,64.56
2019-05-21T00:10:24.138Z,64.28
2019-05-21T00:11:24.063Z,64.09
2019-05-21T00:12:23.983Z,63.60
2019-05-21T00:13:23.907Z,63.99
2019-05-21T00:14:23.825Z,63.57
2019-05-21T00:15:23.747Z,63.99
2019-05-21T00:16:23.670Z,63.57
2019-05-21T00:17:23.590Z,64.34
2019-05-21T00:18:23.551Z,63.86
2019-05-21T00:19:23.436Z,64.05
2019-05-21T00:20:23.361Z,63.10
2019-05-21T00:21:23.279Z,63.48
2019-05-21T00:22:23.198Z,62.14
2019-05-21T00:23:23.124Z,62.33
2019-05-21T00:24:23.051Z,62.04
2019-05-21T00:25:22.966Z,62.04
2019-05-21T00:26:22.886Z,61.85
2019-05-21T00:27:22.808Z,62.04
2019-05-21T00:28:22.733Z,61.31
2019-05-21T00:29:22.651Z,61.08
2019-05-21T00:30:22.573Z,61.66
2019-05-21T00:31:22.494Z,61.76
2019-05-21T00:32:22.417Z,61.66
2019-05-21T00:33:22.341Z,60.03
2019-05-21T00:34:22.260Z,59.84
2019-05-21T00:35:22.181Z,60.44
2019-05-21T00:36:22.107Z,60.22
2019-05-21T00:37:22.031Z,59.87
2019-05-21T00:38:21.950Z,60.44
2019-05-21T00:39:21.873Z,60.16
2019-05-21T00:40:21.800Z,60.32
2019-05-21T00:41:21.716Z,61.50
2019-05-21T00:42:21.638Z,61.85
2019-05-21T00:43:21.563Z,62.36
2019-05-21T00:44:21.485Z,61.98
2019-05-21T00:45:21.405Z,61.88
2019-05-21T00:46:21.326Z,62.04
2019-05-21T00:47:21.247Z,61.88
2019-05-21T00:48:21.168Z,61.88
2019-05-21T00:49:21.095Z,61.69
2019-05-21T00:50:21.011Z,62.17
2019-05-21T00:51:20.937Z,62.23
2019-05-21T00:52:20.854Z,61.60
2019-05-21T00:53:20.779Z,61.98
2019-05-21T00:54:20.708Z,61.40
2019-05-21T00:55:20.625Z,61.11
2019-05-21T00:56:20.545Z,60.16
2019-05-21T00:57:20.476Z,60.16
2019-05-21T00:58:20.389Z,60.54
2019-05-21T00:59:20.311Z,59.84
2019-05-21T01:00:20.312Z,60.25
2019-05-21T01:01:20.163Z,59.39
2019-05-21T01:02:20.092Z,60.25
2019-05-21T01:03:19.994Z,60.16
2019-05-21T01:04:19.919Z,59.58
2019-05-21T01:05:19.841Z,59.87
2019-05-21T01:06:19.773Z,59.97
2019-05-21T01:07:19.699Z,58.53
2019-05-21T01:08:19.606Z,57.86
2019-05-21T01:09:19.533Z,58.53
2019-05-21T01:10:19.450Z,57.95
2019-05-21T01:11:19.375Z,57.76
2019-05-21T01:12:19.296Z,57.76
2019-05-21T01:13:19.217Z,57.86
2019-05-21T01:14:19.139Z,57.67
2019-05-21T01:15:19.060Z,58.44
2019-05-21T01:16:18.985Z,58.62
2019-05-21T01:17:18.902Z,58.53
2019-05-21T01:18:18.832Z,59.01
2019-05-21T01:19:18.749Z,59.58
2019-05-21T01:20:18.677Z,59.97
2019-05-21T01:21:18.598Z,60.06
2019-05-21T01:22:18.517Z,60.44
2019-05-21T01:23:18.441Z,60.25
2019-05-21T01:24:18.362Z,60.44
2019-05-21T01:25:18.279Z,60.44
2019-05-21T01:26:18.207Z,60.25
2019-05-21T01:27:18.127Z,60.25
2019-05-21T01:28:18.050Z,60.41
2019-05-21T01:29:17.972Z,60.35
2019-05-21T01:30:17.893Z,59.68
2019-05-21T01:31:17.817Z,59.58
2019-05-21T01:32:17.736Z,59.20
2019-05-21T01:33:17.664Z,58.15
2019-05-21T01:34:17.579Z,58.12
2019-05-21T01:35:17.700Z,58.15
2019-05-21T01:36:17.425Z,57.76
2019-05-21T01:37:17.350Z,57.64
2019-05-21T01:38:17.270Z,58.05
2019-05-21T01:39:17.194Z,58.24
2019-05-21T01:40:17.119Z,57.38
2019-05-21T01:41:17.036Z,57.57
2019-05-21T01:42:16.959Z,56.49
2019-05-21T01:43:16.881Z,56.52
2019-05-21T01:44:16.802Z,57.19
2019-05-21T01:45:16.730Z,57.57
2019-05-21T01:46:16.649Z,56.81
2019-05-21T01:47:16.568Z,56.52
2019-05-21T01:48:16.495Z,56.49
2019-05-21T01:49:16.416Z,56.42
2019-05-21T01:50:16.336Z,56.42
2019-05-21T01:51:16.256Z,57.57
2019-05-21T01:52:16.178Z,56.13
2019-05-21T01:53:16.102Z,56.01
2019-05-21T01:54:16.022Z,56.20
2019-05-21T01:55:15.940Z,55.15
2019-05-21T01:56:15.868Z,54.77
2019-05-21T01:57:15.787Z,54.77
2019-05-21T01:58:15.709Z,54.67
2019-05-21T01:59:15.635Z,53.81
2019-05-21T02:00:15.557Z,54.67
2019-05-21T02:01:15.571Z,54.67
2019-05-21T02:02:15.398Z,53.81
2019-05-21T02:03:15.314Z,53.91
2019-05-21T02:04:15.240Z,54.00
2019-05-21T02:05:15.167Z,54.10
2019-05-21T02:06:15.088Z,53.23
2019-05-21T02:07:15.007Z,53.04
2019-05-21T02:08:14.930Z,52.56
2019-05-21T02:09:14.849Z,53.52
2019-05-21T02:10:14.796Z,51.79
2019-05-21T02:11:14.700Z,51.89
2019-05-21T02:12:14.614Z,52.56
2019-05-21T02:13:14.540Z,51.89
2019-05-21T02:14:14.461Z,52.09
2019-05-21T02:15:14.381Z,52.47
2019-05-21T02:16:14.302Z,51.32
2019-05-21T02:17:14.241Z,51.99
2019-05-21T02:18:14.151Z,51.03
2019-05-21T02:19:14.100Z,50.46
2019-05-21T02:20:14.089Z,49.79
2019-05-21T02:21:13.912Z,49.40
2019-05-21T02:22:13.834Z,49.31
2019-05-21T02:23:13.756Z,49.11
2019-05-21T02:24:13.680Z,49.50
2019-05-21T02:25:13.601Z,48.64
2019-05-21T02:26:13.519Z,49.02
2019-05-21T02:27:13.441Z,49.60
2019-05-21T02:28:13.371Z,49.21
2019-05-21T02:29:13.287Z,49.79
2019-05-21T02:30:13.213Z,49.60
2019-05-21T02:31:13.129Z,49.79
2019-05-21T02:32:13.051Z,49.40
2019-05-21T02:33:12.975Z,49.69
2019-05-21T02:34:12.901Z,49.21
2019-05-21T02:35:12.818Z,49.21
2019-05-21T02:36:12.742Z,49.11
2019-05-21T02:37:12.663Z,49.11
2019-05-21T02:38:12.590Z,48.83
2019-05-21T02:39:12.504Z,48.93
2019-05-21T02:40:12.430Z,48.25
2019-05-21T02:41:12.350Z,48.64
2019-05-21T02:42:12.268Z,48.73
2019-05-21T02:43:12.192Z,47.87
2019-05-21T02:44:12.111Z,47.87
2019-05-21T02:45:12.037Z,48.64
2019-05-21T02:46:11.991Z,47.87
2019-05-21T02:47:11.878Z,47.20
2019-05-21T02:48:11.797Z,47.30
2019-05-21T02:49:11.727Z,46.72
2019-05-21T02:50:11.684Z,47.30
2019-05-21T02:51:11.567Z,47.78
2019-05-21T02:52:11.486Z,45.86
2019-05-21T02:53:11.409Z,46.25
2019-05-21T02:54:11.329Z,45.48
2019-05-21T02:55:11.253Z,45.19
2019-05-21T02:56:11.177Z,44.71
2019-05-21T02:57:11.091Z,45.29
2019-05-21T02:58:11.010Z,44.33
2019-05-21T02:59:10.942Z,44.90
2019-05-21T03:00:10.858Z,45.57
2019-05-21T03:01:10.781Z,45.86
2019-05-21T03:02:10.704Z,46.15
2019-05-21T03:03:10.632Z,45.86
2019-05-21T03:04:10.547Z,45.86
2019-05-21T03:05:10.469Z,46.15
2019-05-21T03:06:14.494Z,45.76
2019-05-21T03:07:10.310Z,45.96
2019-05-21T03:08:10.237Z,45.38
2019-05-21T03:09:10.158Z,46.15
2019-05-21T03:10:10.075Z,45.96
2019-05-21T03:11:09.996Z,45.86
2019-05-21T03:12:09.920Z,46.53
2019-05-21T03:13:09.845Z,47.11
2019-05-21T03:14:09.761Z,47.30
2019-05-21T03:15:09.683Z,47.78
2019-05-21T03:16:09.612Z,47.97
2019-05-21T03:17:09.532Z,47.30
2019-05-21T03:18:09.449Z,47.11
2019-05-21T03:19:09.373Z,47.11
2019-05-21T03:20:09.295Z,49.21
2019-05-21T03:21:09.217Z,48.54
2019-05-21T03:22:09.190Z,48.07
2019-05-21T03:23:09.056Z,47.78
2019-05-21T03:24:09.021Z,47.97
2019-05-21T03:25:08.902Z,47.87
2019-05-21T03:26:08.823Z,48.44
2019-05-21T03:27:08.753Z,48.83
2019-05-21T03:28:08.667Z,48.16
2019-05-21T03:29:08.585Z,48.64
2019-05-21T03:30:08.512Z,48.07
2019-05-21T03:31:08.433Z,48.73
2019-05-21T03:32:08.352Z,47.39
2019-05-21T03:33:08.284Z,47.30
2019-05-21T03:34:08.205Z,47.30
2019-05-21T03:35:08.134Z,47.87
2019-05-21T03:36:08.048Z,48.73
2019-05-21T03:37:07.963Z,48.83
2019-05-21T03:38:07.883Z,48.64
2019-05-21T03:39:07.823Z,48.73
2019-05-21T03:40:07.720Z,48.16
2019-05-21T03:41:07.653Z,48.54
2019-05-21T03:42:07.601Z,48.25
2019-05-21T03:43:07.493Z,48.44
2019-05-21T03:44:07.416Z,49.02
2019-05-21T03:45:08.205Z,48.83
2019-05-21T03:46:07.256Z,48.73
2019-05-21T03:47:07.181Z,49.31
2019-05-21T03:48:07.104Z,50.17
2019-05-21T03:49:07.026Z,50.17
2019-05-21T03:50:06.952Z,49.79
2019-05-21T03:51:06.865Z,50.26
2019-05-21T03:52:06.790Z,50.36
2019-05-21T03:53:06.709Z,49.98
2019-05-21T03:54:06.634Z,49.40
2019-05-21T03:55:06.555Z,49.11
2019-05-21T03:56:06.481Z,48.93
2019-05-21T03:57:06.397Z,48.44
2019-05-21T03:58:06.319Z,47.97
2019-05-21T03:59:06.240Z,48.54
2019-05-21T04:00:06.161Z,49.02
2019-05-21T04:01:06.084Z,48.54
2019-05-21T04:02:06.004Z,49.11
2019-05-21T04:03:05.932Z,48.73
2019-05-21T04:04:05.849Z,49.02
2019-05-21T04:05:05.772Z,48.73
2019-05-21T04:06:05.714Z,48.16
2019-05-21T04:07:05.614Z,48.35
2019-05-21T04:08:05.537Z,48.54
2019-05-21T04:09:05.464Z,48.64
2019-05-21T04:10:05.376Z,47.97
2019-05-21T04:11:05.309Z,50.17
2019-05-21T04:12:05.237Z,49.60
2019-05-21T04:13:05.147Z,48.64
2019-05-21T04:14:05.065Z,47.97
2019-05-21T04:15:04.986Z,48.64
2019-05-21T04:16:04.923Z,48.35
2019-05-21T04:17:04.828Z,48.64
2019-05-21T04:18:04.749Z,48.25
2019-05-21T04:19:04.674Z,48.64
2019-05-21T04:20:04.598Z,49.88
2019-05-21T04:21:04.555Z,50.26
2019-05-21T04:22:04.441Z,50.07
2019-05-21T04:23:04.363Z,50.65
2019-05-21T04:24:08.493Z,51.03
2019-05-21T04:25:11.862Z,51.51
2019-05-21T04:27:08.522Z,50.17
2019-05-21T04:28:08.421Z,51.22
2019-05-21T04:30:12.741Z,52.56
2019-05-21T04:31:12.635Z,52.56
2019-05-21T04:33:16.949Z,53.33
2019-05-21T04:34:16.856Z,54.00
2019-05-21T04:36:10.094Z,52.28
2019-05-21T04:37:11.772Z,52.56
2019-05-21T04:39:14.362Z,51.13
2019-05-21T04:40:14.265Z,53.23
2019-05-21T04:42:18.533Z,53.81
2019-05-21T04:43:18.447Z,53.52
2019-05-21T04:45:22.748Z,52.66
2019-05-21T04:46:22.668Z,52.09
2019-05-21T04:48:27.995Z,53.33
2019-05-21T04:49:27.904Z,52.95
2019-05-21T04:51:33.226Z,53.81
2019-05-21T04:52:33.133Z,52.56
2019-05-21T04:54:37.461Z,53.71
2019-05-21T04:55:37.377Z,53.91
2019-05-21T04:57:41.692Z,53.52
2019-05-21T04:58:41.608Z,52.66
2019-05-21T05:00:45.903Z,56.39
2019-05-21T05:01:45.816Z,56.39
2019-05-21T05:03:50.137Z,55.63
2019-05-21T05:04:50.051Z,55.53
2019-05-21T05:06:54.343Z,54.77
2019-05-21T05:07:54.268Z,54.48
2019-05-21T05:09:58.562Z,54.38
2019-05-21T05:10:58.477Z,55.24
2019-05-21T05:13:02.806Z,55.15
2019-05-21T05:14:02.696Z,55.53
2019-05-21T05:15:55.935Z,54.38
2019-05-21T05:16:55.858Z,53.71
2019-05-21T05:19:00.181Z,53.42
2019-05-21T05:20:00.062Z,53.42
2019-05-21T05:20:59.983Z,53.71
2019-05-21T05:21:59.902Z,54.19
2019-05-21T05:22:59.825Z,54.77
2019-05-21T05:23:59.756Z,54.57
2019-05-21T05:24:59.672Z,55.63
2019-05-21T05:25:59.593Z,56.10
2019-05-21T05:26:59.585Z,55.15
2019-05-21T05:27:59.441Z,56.01
2019-05-21T05:28:59.360Z,56.49
2019-05-21T05:29:59.284Z,56.68
2019-05-21T05:30:59.201Z,56.39
2019-05-21T05:31:59.123Z,56.68
2019-05-21T05:32:59.042Z,54.86
2019-05-21T05:33:58.968Z,55.91
2019-05-21T05:34:58.888Z,54.67
2019-05-21T05:35:58.812Z,53.62
2019-05-21T05:36:58.807Z,53.81
2019-05-21T05:37:58.650Z,53.33
2019-05-21T05:38:58.592Z,53.04
2019-05-21T05:39:58.494Z,53.62
2019-05-21T05:40:58.416Z,54.00
2019-05-21T05:41:58.342Z,53.42
2019-05-21T05:42:59.278Z,53.81
2019-05-21T05:43:58.187Z,52.66
2019-05-21T05:44:58.120Z,53.33
2019-05-21T05:45:58.052Z,53.23
2019-05-21T05:46:57.981Z,52.85
2019-05-21T05:47:57.868Z,53.42
2019-05-21T05:49:01.110Z,52.56
2019-05-21T05:49:57.711Z,52.75
2019-05-21T05:50:57.639Z,53.33
2019-05-21T05:51:57.554Z,53.33
2019-05-21T05:52:57.478Z,55.44
2019-05-21T05:53:57.398Z,55.44
2019-05-21T05:54:57.329Z,56.10
2019-05-21T05:55:57.245Z,56.30
2019-05-21T05:56:57.183Z,55.24
2019-05-21T05:57:57.087Z,55.15
2019-05-21T05:58:57.014Z,56.77
2019-05-21T05:59:56.926Z,55.63
2019-05-21T06:00:56.848Z,56.59
2019-05-21T06:01:56.780Z,55.53
2019-05-21T06:02:56.695Z,54.67
2019-05-21T06:03:56.617Z,54.57
2019-05-21T06:04:56.536Z,53.71
2019-05-21T06:05:56.460Z,54.77
2019-05-21T06:06:56.379Z,54.67
2019-05-21T06:07:59.928Z,54.77
2019-05-21T06:08:56.400Z,56.39
2019-05-21T06:09:56.146Z,56.01
2019-05-21T06:10:56.073Z,56.20
2019-05-21T06:11:55.990Z,56.59
2019-05-21T06:12:55.910Z,55.05
2019-05-21T06:13:55.832Z,53.81
2019-05-21T06:14:55.754Z,56.37
2019-05-21T06:15:55.697Z,55.88
2019-05-21T06:16:55.597Z,55.31
2019-05-21T06:17:55.516Z,54.07
2019-05-21T06:18:55.446Z,54.07
2019-05-21T06:19:55.369Z,54.67
2019-05-21T06:20:55.300Z,53.30
2019-05-21T06:21:55.206Z,51.97
2019-05-21T06:22:55.124Z,52.54
2019-05-21T06:23:55.050Z,53.78
2019-05-21T06:24:54.969Z,53.88
2019-05-21T06:25:54.917Z,52.95
2019-05-21T06:26:54.816Z,52.18
2019-05-21T06:27:54.731Z,51.79
2019-05-21T06:28:54.655Z,52.56
2019-05-21T06:29:54.578Z,51.61
2019-05-21T06:30:54.501Z,51.87
2019-05-21T06:31:54.415Z,52.28
2019-05-21T06:32:54.355Z,52.92
2019-05-21T06:33:54.280Z,51.89
2019-05-21T06:34:54.183Z,51.13
2019-05-21T06:35:54.118Z,52.18
2019-05-21T06:36:54.031Z,52.28
2019-05-21T06:37:53.947Z,54.48
2019-05-21T06:38:53.875Z,53.42
2019-05-21T06:39:53.794Z,52.63
2019-05-21T06:40:53.712Z,53.52
2019-05-21T06:41:53.636Z,53.52
2019-05-21T06:42:53.593Z,53.71
2019-05-21T06:43:53.493Z,57.26
2019-05-21T06:44:53.396Z,57.61
2019-05-21T06:45:53.323Z,58.22
2019-05-21T06:46:53.242Z,59.17
2019-05-21T06:47:53.165Z,58.47
2019-05-21T06:48:53.085Z,58.47
2019-05-21T06:49:53.019Z,59.91
2019-05-21T06:50:52.958Z,57.99
2019-05-21T06:51:52.853Z,57.61
2019-05-21T06:52:52.782Z,56.37
2019-05-21T06:53:52.689Z,57.51
2019-05-21T06:54:52.614Z,56.56
2019-05-21T06:55:52.558Z,57.51
2019-05-21T06:56:52.457Z,55.98
2019-05-21T06:57:52.380Z,54.16
2019-05-21T06:58:52.301Z,55.12
2019-05-21T06:59:52.225Z,57.04
2019-05-21T07:00:52.150Z,58.18
2019-05-21T07:01:52.078Z,60.86
2019-05-21T07:02:51.994Z,60.67
2019-05-21T07:03:51.916Z,59.33
2019-05-21T07:04:51.830Z,60.86
2019-05-21T07:05:58.959Z,60.38
2019-05-21T07:06:51.689Z,62.59
2019-05-21T07:07:51.610Z,61.54
2019-05-21T07:08:51.515Z,62.01
2019-05-21T07:09:51.458Z,62.97
2019-05-21T07:10:51.361Z,61.72
2019-05-21T07:11:51.282Z,62.59
2019-05-21T07:12:51.198Z,60.86
2019-05-21T07:13:51.138Z,61.54
2019-05-21T07:14:51.048Z,61.44
2019-05-21T07:15:50.984Z,61.15
2019-05-21T07:16:50.944Z,60.19
2019-05-21T07:17:50.815Z,61.15
2019-05-21T07:18:50.737Z,60.67
2019-05-21T07:19:50.653Z,60.86
2019-05-21T07:20:50.573Z,61.91
2019-05-21T07:21:50.512Z,61.15
2019-05-21T07:22:50.542Z,61.34
2019-05-21T07:23:50.336Z,60.96
2019-05-21T07:24:50.292Z,60.48
2019-05-21T07:25:50.220Z,61.44
2019-05-21T07:26:50.108Z,61.05
2019-05-21T07:27:50.025Z,60.10
2019-05-21T07:28:49.979Z,62.97
2019-05-21T07:29:49.876Z,62.77
2019-05-21T07:30:49.806Z,62.01
2019-05-21T07:31:49.720Z,60.10
2019-05-21T07:32:49.675Z,60.10
2019-05-21T07:33:49.552Z,60.38
2019-05-21T07:34:49.496Z,59.62
2019-05-21T07:35:49.403Z,61.91
2019-05-21T07:36:49.317Z,61.63
2019-05-21T07:37:49.284Z,60.00
2019-05-21T07:38:54.099Z,59.81
2019-05-21T07:39:49.125Z,57.99
2019-05-21T07:40:49.022Z,56.08
2019-05-21T07:41:48.927Z,57.32
2019-05-21T07:42:48.857Z,58.47
2019-05-21T07:43:48.810Z,57.51
2019-05-21T07:44:48.691Z,57.90
2019-05-21T07:45:48.612Z,56.27
2019-05-21T07:46:48.537Z,58.56
2019-05-21T07:47:48.457Z,61.15
2019-05-21T07:48:48.373Z,59.81
2019-05-21T07:49:48.295Z,62.11
2019-05-21T07:50:48.231Z,66.61
2019-05-21T07:51:48.141Z,65.55
2019-05-21T07:52:48.065Z,66.25
2019-05-21T07:53:48.001Z,65.84
2019-05-21T07:54:47.934Z,65.74
2019-05-21T07:55:47.831Z,69.76
2019-05-21T07:56:47.748Z,70.05
2019-05-21T07:57:47.675Z,67.85
2019-05-21T07:58:47.594Z,68.42
2019-05-21T07:59:47.517Z,68.42
2019-05-21T08:00:47.468Z,68.36
2019-05-21T08:01:47.368Z,70.91
2019-05-21T08:02:47.284Z,70.05
2019-05-21T08:03:47.206Z,69.48
2019-05-21T08:04:47.123Z,68.23
2019-05-21T08:05:47.052Z,68.62
2019-05-21T08:06:46.966Z,70.81
2019-05-21T08:07:46.889Z,67.76
2019-05-21T08:08:46.844Z,72.16
2019-05-21T08:09:46.797Z,75.22
2019-05-21T08:10:46.654Z,75.02
2019-05-21T08:11:47.282Z,72.83
2019-05-21T08:12:46.499Z,74.45
2019-05-21T08:13:46.417Z,73.97
2019-05-21T08:14:46.342Z,73.79
2019-05-21T08:15:46.284Z,73.21
2019-05-21T08:16:46.190Z,73.59
2019-05-21T08:17:46.115Z,72.54
2019-05-21T08:18:46.028Z,74.36
2019-05-21T08:19:45.962Z,73.88
2019-05-21T08:20:45.868Z,75.31
2019-05-21T08:21:45.805Z,74.84
2019-05-21T08:22:45.714Z,73.97
2019-05-21T08:23:45.639Z,73.02
2019-05-21T08:24:45.568Z,71.01
2019-05-21T08:25:45.530Z,71.81
2019-05-21T08:26:45.409Z,72.09
2019-05-21T08:27:45.366Z,71.91
2019-05-21T08:28:45.270Z,72.67
2019-05-21T08:29:45.176Z,75.07
2019-05-21T08:30:45.108Z,73.54
2019-05-21T08:31:45.032Z,74.01
2019-05-21T08:32:44.977Z,71.62
2019-05-21T08:33:44.858Z,71.91
2019-05-21T08:34:44.793Z,72.38
2019-05-21T08:35:44.756Z,71.68
2019-05-21T08:36:44.737Z,69.70
2019-05-21T08:37:44.616Z,68.84
2019-05-21T08:38:44.535Z,68.07
2019-05-21T08:39:44.522Z,67.41
2019-05-21T08:40:44.368Z,67.21
2019-05-21T08:41:44.278Z,68.84
2019-05-21T08:42:44.194Z,71.33
2019-05-21T08:43:44.094Z,71.04
2019-05-21T08:44:44.110Z,70.09
2019-05-21T08:45:43.958Z,74.58
2019-05-21T08:46:43.841Z,72.77
2019-05-21T08:47:43.825Z,72.00
2019-05-21T08:48:43.713Z,72.86
2019-05-21T08:49:44.268Z,71.91
2019-05-21T08:50:43.564Z,73.54
2019-05-21T08:51:43.490Z,75.02
2019-05-21T08:52:43.371Z,75.51
2019-05-21T08:53:43.294Z,75.16
2019-05-21T08:54:43.417Z,75.16
2019-05-21T08:55:43.212Z,74.20
2019-05-21T08:56:43.126Z,73.54
2019-05-21T08:57:43.008Z,73.82
2019-05-21T08:58:42.948Z,73.44
2019-05-21T08:59:42.840Z,74.49
2019-05-21T09:00:42.847Z,77.08
2019-05-21T09:01:42.707Z,76.40
2019-05-21T09:02:42.724Z,78.03
2019-05-21T09:03:42.572Z,76.89
2019-05-21T09:04:46.476Z,75.93
2019-05-21T09:05:42.383Z,74.87
2019-05-21T09:06:42.289Z,74.68
2019-05-21T09:07:42.262Z,73.91
2019-05-21T09:08:42.182Z,75.26
2019-05-21T09:09:50.138Z,75.07
2019-05-21T09:10:41.959Z,74.58
2019-05-21T09:11:41.885Z,74.01
2019-05-21T09:12:41.824Z,78.99
2019-05-21T09:13:41.734Z,80.71
2019-05-21T09:14:41.710Z,80.14
2019-05-21T09:15:41.609Z,78.13
2019-05-21T09:16:41.535Z,78.03
2019-05-21T09:17:41.449Z,77.46
2019-05-21T09:18:41.378Z,76.69
2019-05-21T09:19:41.290Z,76.02
2019-05-21T09:20:41.235Z,76.98
2019-05-21T09:21:41.200Z,79.08
2019-05-21T09:22:41.089Z,77.84
2019-05-21T09:23:41.034Z,77.46
2019-05-21T09:24:40.909Z,79.95
2019-05-21T09:25:40.839Z,77.94
2019-05-21T09:26:40.735Z,74.87
2019-05-21T09:27:40.709Z,74.68
2019-05-21T09:28:40.628Z,74.97
2019-05-21T09:29:40.537Z,76.12
2019-05-21T09:30:40.447Z,76.21
2019-05-21T09:31:40.324Z,75.26
2019-05-21T09:32:40.274Z,75.64
2019-05-21T09:33:40.167Z,75.73
2019-05-21T09:34:48.511Z,75.35
2019-05-21T09:35:40.098Z,75.45
2019-05-21T09:36:39.936Z,77.84
2019-05-21T09:37:39.852Z,78.70
2019-05-21T09:38:39.781Z,77.65
2019-05-21T09:39:39.701Z,76.40
2019-05-21T09:40:39.646Z,76.21
2019-05-21T09:41:39.544Z,76.21
2019-05-21T09:42:39.471Z,76.31
2019-05-21T09:43:39.387Z,75.07
2019-05-21T09:44:39.326Z,75.35
2019-05-21T09:45:39.290Z,75.83
2019-05-21T09:46:39.153Z,80.04
2019-05-21T09:47:39.088Z,78.99
2019-05-21T09:48:38.999Z,78.03
2019-05-21T09:49:38.921Z,78.42
2019-05-21T09:50:38.884Z,77.26
2019-05-21T09:51:38.770Z,77.84
2019-05-21T09:52:38.685Z,78.70
2019-05-21T09:53:38.622Z,77.75
2019-05-21T09:54:38.539Z,78.03
2019-05-21T09:55:38.454Z,80.43
2019-05-21T09:56:38.387Z,78.99
2019-05-21T09:57:38.295Z,81.20
2019-05-21T09:58:38.219Z,79.08
2019-05-21T09:59:38.164Z,78.61
2019-05-21T10:00:38.171Z,80.43
2019-05-21T10:01:37.982Z,79.08
2019-05-21T10:02:37.909Z,77.84
2019-05-21T10:03:37.828Z,76.89
2019-05-21T10:04:37.756Z,77.65
2019-05-21T10:05:37.672Z,78.03
2019-05-21T10:06:37.594Z,77.65
2019-05-21T10:07:40.400Z,76.89
2019-05-21T10:08:37.432Z,77.55
2019-05-21T10:09:37.363Z,79.08
2019-05-21T10:10:37.283Z,78.80
2019-05-21T10:11:37.203Z,78.32
2019-05-21T10:12:37.121Z,79.85
2019-05-21T10:13:37.045Z,78.61
2019-05-21T10:14:36.973Z,78.22
2019-05-21T10:15:36.893Z,77.17
2019-05-21T10:16:36.813Z,76.31
2019-05-21T10:17:36.729Z,76.40
2019-05-21T10:18:36.657Z,79.85
2019-05-21T10:19:36.588Z,78.22
2019-05-21T10:20:36.505Z,77.84
2019-05-21T10:21:36.422Z,78.03
2019-05-21T10:22:36.349Z,76.98
2019-05-21T10:23:36.265Z,75.26
2019-05-21T10:24:36.188Z,74.30
2019-05-21T10:25:36.161Z,75.54
2019-05-21T10:26:36.032Z,72.96
2019-05-21T10:27:35.955Z,74.11
2019-05-21T10:28:35.873Z,72.29
2019-05-21T10:29:35.805Z,73.82
2019-05-21T10:30:35.721Z,72.29
2019-05-21T10:31:35.644Z,73.44
2019-05-21T10:32:35.563Z,74.01
2019-05-21T10:33:35.489Z,77.94
2019-05-21T10:34:35.411Z,75.16
2019-05-21T10:35:35.327Z,74.40
2019-05-21T10:36:35.256Z,74.58
2019-05-21T10:37:35.172Z,74.97
2019-05-21T10:38:35.099Z,74.20
2019-05-21T10:39:35.023Z,74.77
2019-05-21T10:40:34.954Z,77.36
2019-05-21T10:41:34.865Z,75.35
2019-05-21T10:42:34.814Z,76.98
2019-05-21T10:43:34.709Z,75.54
2019-05-21T10:44:34.664Z,75.07
2019-05-21T10:45:34.561Z,75.26
2019-05-21T10:46:34.473Z,77.36
2019-05-21T10:47:34.391Z,77.84
2019-05-21T10:48:34.318Z,77.17
2019-05-21T10:49:34.242Z,78.32
2019-05-21T10:50:34.169Z,78.74
2019-05-21T10:51:34.088Z,82.38
2019-05-21T10:52:34.014Z,83.39
2019-05-21T10:53:33.928Z,81.90
2019-05-21T10:54:33.851Z,80.04
2019-05-21T10:55:33.771Z,79.89
2019-05-21T10:56:47.571Z,82.82
2019-05-21T10:57:33.623Z,82.09
2019-05-21T10:58:33.539Z,85.64
2019-05-21T10:59:33.463Z,84.78
2019-05-21T11:00:33.388Z,83.44
2019-05-21T11:01:33.307Z,83.25
2019-05-21T11:02:33.235Z,82.09
2019-05-21T11:03:33.152Z,81.13
2019-05-21T11:04:33.087Z,84.58
2019-05-21T11:05:33.001Z,85.93
2019-05-21T11:06:32.945Z,87.94
2019-05-21T11:07:32.856Z,89.09
2019-05-21T11:08:32.777Z,90.33
2019-05-21T11:09:32.699Z,89.76
2019-05-21T11:10:32.658Z,89.47
2019-05-21T11:11:32.566Z,94.26
2019-05-21T11:12:32.464Z,93.49
2019-05-21T11:13:32.403Z,91.96
2019-05-21T11:14:32.351Z,91.19
2019-05-21T11:15:32.517Z,91.29
2019-05-21T11:16:32.158Z,90.05
2019-05-21T11:17:46.950Z,91.39
2019-05-21T11:18:32.018Z,91.39
2019-05-21T11:19:31.920Z,90.23
2019-05-21T11:20:31.848Z,90.72
2019-05-21T11:21:31.801Z,88.51
2019-05-21T11:22:31.733Z,86.50
2019-05-21T11:23:31.620Z,85.54
2019-05-21T11:24:31.536Z,83.44
2019-05-21T11:25:31.462Z,82.76
2019-05-21T11:26:31.406Z,82.67
2019-05-21T11:27:38.979Z,83.15
2019-05-21T11:29:35.662Z,85.06
2019-05-21T11:30:35.564Z,84.78
2019-05-21T11:32:39.880Z,85.35
2019-05-21T11:33:39.792Z,85.25
2019-05-21T11:35:44.117Z,84.78
2019-05-21T11:36:44.010Z,84.49
2019-05-21T11:38:39.980Z,83.25
2019-05-21T11:39:37.185Z,83.34
2019-05-21T11:41:41.500Z,83.92
2019-05-21T11:42:41.405Z,85.49
2019-05-21T11:44:45.753Z,84.53
2019-05-21T11:45:45.635Z,83.76
2019-05-21T11:47:50.284Z,89.13
2019-05-21T11:48:49.961Z,91.14
2019-05-21T11:50:54.188Z,89.90
2019-05-21T11:51:54.117Z,89.23
2019-05-21T11:53:58.402Z,95.31
2019-05-21T11:54:58.316Z,94.89
2019-05-21T11:57:02.646Z,91.24
2019-05-21T11:58:02.556Z,90.00
2019-05-21T12:00:06.897Z,88.08
2019-05-21T12:01:06.808Z,87.21
2019-05-21T12:03:11.118Z,88.27
2019-05-21T12:04:11.031Z,91.14
2019-05-21T12:06:15.380Z,90.09
2019-05-21T12:07:15.299Z,91.63
2019-05-21T12:09:19.610Z,92.58
2019-05-21T12:10:19.518Z,91.14
2019-05-21T12:12:23.849Z,90.09
2019-05-21T12:13:23.755Z,92.30
2019-05-21T12:15:28.084Z,91.24
2019-05-21T12:16:27.998Z,92.01
2019-05-21T12:18:21.253Z,91.91
2019-05-21T12:19:21.161Z,93.26
2019-05-21T12:21:25.483Z,92.10
2019-05-21T12:22:25.396Z,91.82
2019-05-21T12:24:29.708Z,90.28
2019-05-21T12:25:29.616Z,90.28
2019-05-21T12:27:33.942Z,90.76
2019-05-21T12:28:33.844Z,92.20
2019-05-21T12:30:38.166Z,92.30
2019-05-21T12:31:38.067Z,91.05
2019-05-21T12:33:42.374Z,90.09
2019-05-21T12:34:42.291Z,93.63
2019-05-21T12:36:46.623Z,92.87
2019-05-21T12:37:46.519Z,94.31
2019-05-21T12:39:50.851Z,94.02
2019-05-21T12:40:50.757Z,92.39
2019-05-21T12:42:55.074Z,93.73
2019-05-21T12:43:54.982Z,94.31
2019-05-21T12:45:59.344Z,92.82
2019-05-21T12:46:59.244Z,94.12
2019-05-21T12:48:52.487Z,91.24
2019-05-21T12:49:52.405Z,90.28
2019-05-21T12:51:56.736Z,89.23
2019-05-21T12:52:56.641Z,90.19
2019-05-21T12:55:00.960Z,89.80
2019-05-21T12:56:00.867Z,89.51
2019-05-21T12:58:05.222Z,89.80
2019-05-21T12:59:05.150Z,89.71
2019-05-21T13:01:09.434Z,89.90
2019-05-21T13:02:09.337Z,90.95
2019-05-21T13:04:13.652Z,89.61
2019-05-21T13:05:13.568Z,90.09
2019-05-21T13:06:13.489Z,89.61
2019-05-21T13:07:13.415Z,88.46
2019-05-21T13:08:13.336Z,88.08
2019-05-21T13:09:31.430Z,87.02
2019-05-21T13:10:13.179Z,89.80
2019-05-21T13:11:13.110Z,89.80
2019-05-21T13:12:13.026Z,91.63
2019-05-21T13:13:12.956Z,90.47
2019-05-21T13:14:17.749Z,92.10
2019-05-21T13:15:12.801Z,91.24
2019-05-21T13:16:12.723Z,90.19
2019-05-21T13:17:12.642Z,88.56
2019-05-21T13:18:12.566Z,88.75
2019-05-21T13:19:12.529Z,89.13
2019-05-21T13:20:12.425Z,88.27
2019-05-21T13:21:12.336Z,88.37
2019-05-21T13:22:12.263Z,88.65
2019-05-21T13:23:12.180Z,88.75
2019-05-21T13:24:12.104Z,89.13
2019-05-21T13:25:12.021Z,90.86
2019-05-21T13:26:11.950Z,91.34
2019-05-21T13:27:11.880Z,91.34
2019-05-21T13:28:11.790Z,90.00
2019-05-21T13:29:11.718Z,90.00
2019-05-21T13:30:11.642Z,90.19
2019-05-21T13:31:11.566Z,89.80
2019-05-21T13:32:11.486Z,89.37
2019-05-21T13:33:11.417Z,88.51
2019-05-21T13:34:11.337Z,92.58
2019-05-21T13:35:11.255Z,90.33
2019-05-21T13:36:11.185Z,91.24
2019-05-21T13:37:11.109Z,89.13
2019-05-21T13:38:13.635Z,88.75
2019-05-21T13:39:10.954Z,88.65
2019-05-21T13:40:10.876Z,87.50
2019-05-21T13:41:10.799Z,87.50
2019-05-21T13:42:10.723Z,88.27
2019-05-21T13:43:10.645Z,88.27
2019-05-21T13:44:10.570Z,89.32